Time;durP1;ratioP1;P1;durP2;ratioP2;P2;SDS_P1;SDS_P2;PMS_P1;PMS_P2;Temp;Humidity;BMP_temperature;BMP_pressure;BME280_temperature;BME280_humidity;BME280_pressure;Samples;Min_cycle;Max_cycle;Signal;HPM_P1;HPM_P2
2021/08/09 00:02:50;;;;;;;4.22;1.25;;;;;;;14.64;97.92;101104.41;6198950;28;20055;-77
2021/08/09 00:05:51;;;;;;;3.33;1.52;;;;;;;14.65;97.61;101101.63;6198668;28;20058;-77
2021/08/09 00:08:52;;;;;;;2.90;1.50;;;;;;;14.60;97.49;101095.81;6198660;28;20441;-77
2021/08/09 00:11:55;;;;;;;3.58;1.63;;;;;;;14.63;97.04;101100.06;6198501;28;20050;-77
2021/08/09 00:14:56;;;;;;;4.63;1.80;;;;;;;14.57;96.94;101101.28;6198575;28;20050;-78
2021/08/09 00:17:58;;;;;;;6.65;2.03;;;;;;;14.55;97.27;101099.69;6198612;28;20061;-77
2021/08/09 00:20:59;;;;;;;7.00;1.65;;;;;;;14.47;97.31;101097.50;6198113;28;20047;-78
2021/08/09 00:24:00;;;;;;;5.30;1.65;;;;;;;14.45;98.37;101099.41;6198394;28;20053;-78
2021/08/09 00:27:03;;;;;;;5.78;2.20;;;;;;;14.39;98.29;101091.84;6198867;28;20062;-78
2021/08/09 00:30:06;;;;;;;9.50;1.70;;;;;;;14.36;97.80;101092.06;6198450;28;20525;-78
2021/08/09 00:33:07;;;;;;;6.00;1.50;;;;;;;14.35;98.89;101087.69;6197913;28;20042;-77
2021/08/09 00:36:09;;;;;;;2.40;1.40;;;;;;;14.30;98.47;101093.28;6198389;28;20065;-77
2021/08/09 00:39:10;;;;;;;6.35;1.38;;;;;;;14.25;98.50;101099.81;6197911;28;20054;-77
2021/08/09 00:42:13;;;;;;;4.45;1.90;;;;;;;14.22;99.08;101087.66;6198574;28;20053;-77
2021/08/09 00:45:14;;;;;;;3.97;1.50;;;;;;;14.21;99.36;101093.84;6197729;28;20077;-77
2021/08/09 00:48:16;;;;;;;3.47;1.20;;;;;;;14.14;100.00;101103.97;6200521;28;20421;-77
2021/08/09 00:51:17;;;;;;;7.05;1.73;;;;;;;14.12;99.69;101105.84;6202760;28;20051;-78
2021/08/09 00:54:19;;;;;;;5.18;1.67;;;;;;;14.14;98.98;101109.28;6202317;28;20046;-77
2021/08/09 00:57:22;;;;;;;4.18;1.70;;;;;;;14.16;99.00;101106.53;6202414;28;20061;-78
2021/08/09 01:00:24;;;;;;;5.00;1.63;;;;;;;14.17;100.00;101116.13;6202195;28;20062;-78
2021/08/09 01:03:25;;;;;;;3.85;1.52;;;;;;;14.19;100.00;101107.19;6202079;28;20120;-77
2021/08/09 01:06:26;;;;;;;7.00;1.73;;;;;;;14.19;99.01;101115.13;6201943;28;20054;-78
2021/08/09 01:09:31;;;;;;;4.72;1.83;;;;;;;14.25;97.81;101120.97;6202074;28;20051;-78
2021/08/09 01:12:40;;;;;;;14.98;2.75;;;;;;;14.29;98.03;101122.47;6201733;28;20054;-77
2021/08/09 01:15:45;;;;;;;3.95;1.48;;;;;;;14.29;97.94;101117.19;6201571;28;20050;-76
2021/08/09 01:18:48;;;;;;;8.18;1.45;;;;;;;14.26;98.28;101120.00;6201194;28;20054;-77
2021/08/09 01:21:55;;;;;;;6.13;1.70;;;;;;;14.25;98.60;101124.44;6200952;28;20529;-77
2021/08/09 01:25:04;;;;;;;4.38;1.60;;;;;;;14.28;98.24;101123.41;6200782;28;20065;-77
2021/08/09 01:28:09;;;;;;;3.67;1.70;;;;;;;14.29;97.56;101111.91;6201108;28;20080;-77
2021/08/09 01:31:13;;;;;;;3.55;1.50;;;;;;;14.31;96.75;101110.88;6200765;28;20050;-77
2021/08/09 01:34:16;;;;;;;6.13;1.90;;;;;;;14.28;98.90;101110.19;6200620;28;20046;-77
2021/08/09 01:37:20;;;;;;;6.35;1.92;;;;;;;14.27;98.33;101114.63;6200686;28;20063;-76
2021/08/09 01:40:23;;;;;;;4.40;1.63;;;;;;;14.28;98.50;101118.13;6200659;28;20077;-77
2021/08/09 01:43:27;;;;;;;6.63;1.90;;;;;;;14.26;98.56;101120.00;6200642;28;20054;-77
2021/08/09 01:46:29;;;;;;;4.07;1.52;;;;;;;14.21;99.22;101117.66;6200650;28;20050;-77
2021/08/09 01:49:31;;;;;;;6.07;1.85;;;;;;;14.18;99.77;101118.72;6200552;28;20050;-77
2021/08/09 01:52:33;;;;;;;3.88;1.80;;;;;;;14.16;99.89;101128.50;6200233;28;20498;-77
2021/08/09 01:55:35;;;;;;;6.35;2.20;;;;;;;14.14;99.19;101125.13;6200106;28;20050;-76
2021/08/09 01:58:38;;;;;;;6.43;1.88;;;;;;;14.12;98.74;101123.50;6199297;28;20399;-77
2021/08/09 02:01:40;;;;;;;3.65;1.55;;;;;;;14.10;99.67;101128.06;6200133;28;20520;-77
2021/08/09 02:04:42;;;;;;;4.10;1.67;;;;;;;14.12;99.56;101126.16;6200123;28;20046;-77
2021/08/09 02:07:45;;;;;;;7.38;1.90;;;;;;;14.06;100.00;101124.75;6200272;28;20054;-77
2021/08/09 02:10:53;;;;;;;5.82;1.83;;;;;;;14.03;100.00;101129.38;6200013;28;20050;-76
2021/08/09 02:14:00;;;;;;;4.90;2.13;;;;;;;14.06;100.00;101131.84;6199869;28;20054;-77
2021/08/09 02:17:09;;;;;;;4.22;1.55;;;;;;;14.00;100.00;101135.72;6200191;28;20050;-77
2021/08/09 02:20:19;;;;;;;3.53;1.85;;;;;;;14.01;100.00;101137.41;6200086;28;20050;-77
2021/08/09 02:23:22;;;;;;;5.53;2.08;;;;;;;14.05;100.00;101136.28;6270243;22;20068;-78
2021/08/09 02:26:26;;;;;;;5.40;1.70;;;;;;;14.02;100.00;101138.25;6253536;28;20045;-77
2021/08/09 02:29:32;;;;;;;5.93;1.70;;;;;;;14.04;99.41;101134.56;6255138;28;20041;-78
2021/08/09 02:32:36;;;;;;;6.65;1.90;;;;;;;14.08;99.55;101143.13;6228999;28;20041;-77
2021/08/09 02:35:39;;;;;;;7.13;2.38;;;;;;;14.10;99.63;101136.84;6228998;28;20053;-78
2021/08/09 02:38:41;;;;;;;3.85;1.90;;;;;;;14.12;98.83;101145.50;6230521;28;20049;-78
2021/08/09 02:41:43;;;;;;;3.75;1.80;;;;;;;14.04;100.00;101147.78;6230291;28;20547;-78
2021/08/09 02:44:47;;;;;;;7.70;1.90;;;;;;;13.98;100.00;101153.44;6228707;28;20041;-78
2021/08/09 02:47:49;;;;;;;3.38;1.73;;;;;;;13.96;100.00;101153.53;6232918;28;20054;-78
2021/08/09 02:50:51;;;;;;;5.47;2.28;;;;;;;13.91;100.00;101154.78;6231128;28;20046;-78
2021/08/09 02:53:53;;;;;;;7.95;2.00;;;;;;;13.84;100.00;101156.91;6231695;28;20390;-78
2021/08/09 02:56:56;;;;;;;4.20;2.10;;;;;;;13.85;100.00;101157.75;6235198;28;20049;-79
2021/08/09 03:00:01;;;;;;;9.18;2.00;;;;;;;13.83;100.00;101155.22;6236157;28;20496;-78
2021/08/09 03:03:02;;;;;;;5.30;1.80;;;;;;;13.83;100.00;101154.38;6236262;28;20054;-78
2021/08/09 03:06:06;;;;;;;8.20;2.50;;;;;;;13.79;100.00;101151.06;6235866;28;20437;-78
2021/08/09 03:09:08;;;;;;;5.45;2.28;;;;;;;13.79;100.00;101151.06;6236035;28;20050;-78
2021/08/09 03:12:16;;;;;;;6.75;2.13;;;;;;;13.81;100.00;101149.19;6237516;28;20054;-78
2021/08/09 03:15:18;;;;;;;6.03;1.77;;;;;;;13.81;100.00;101156.28;6236378;28;20077;-78
2021/08/09 03:18:20;;;;;;;6.93;2.00;;;;;;;13.78;100.00;101154.66;6236170;28;20053;-79
2021/08/09 03:21:21;;;;;;;7.65;2.05;;;;;;;13.71;100.00;101151.50;6239198;28;20056;-78
2021/08/09 03:24:23;;;;;;;5.00;1.92;;;;;;;13.65;100.00;101151.03;6228851;28;20053;-78
2021/08/09 03:27:25;;;;;;;5.80;2.40;;;;;;;13.60;100.00;101153.97;6227488;28;20054;-78
2021/08/09 03:30:27;;;;;;;6.65;1.90;;;;;;;13.56;100.00;101162.16;6229142;28;20072;-78
2021/08/09 03:33:29;;;;;;;9.48;2.55;;;;;;;13.49;100.00;101161.69;6227765;28;20072;-79
2021/08/09 03:36:30;;;;;;;7.43;2.10;;;;;;;13.43;100.00;101156.75;6228358;28;20080;-79
2021/08/09 03:39:31;;;;;;;6.35;2.38;;;;;;;13.40;100.00;101167.50;6227440;28;20128;-78
2021/08/09 03:42:33;;;;;;;6.07;2.38;;;;;;;13.39;100.00;101168.41;6226099;28;20429;-77
2021/08/09 03:45:35;;;;;;;7.75;2.38;;;;;;;13.37;100.00;101170.31;6224737;28;20057;-77
2021/08/09 03:48:37;;;;;;;6.07;2.00;;;;;;;13.35;100.00;101169.53;6224608;28;20053;-78
2021/08/09 03:51:39;;;;;;;5.82;2.20;;;;;;;13.33;100.00;101169.63;6225008;28;20050;-78
2021/08/09 03:54:40;;;;;;;7.43;2.15;;;;;;;13.33;100.00;101177.56;6223187;28;20050;-78
2021/08/09 03:57:42;;;;;;;4.20;1.77;;;;;;;13.31;100.00;101182.09;6235747;28;20052;-78
2021/08/09 04:00:45;;;;;;;3.42;2.15;;;;;;;13.31;100.00;101181.22;6229857;28;20512;-77
2021/08/09 04:03:46;;;;;;;6.53;2.38;;;;;;;13.32;100.00;101185.56;6243361;28;20420;-77
2021/08/09 04:06:48;;;;;;;4.65;2.00;;;;;;;13.30;100.00;101193.56;6239179;28;20045;-78
2021/08/09 04:09:49;;;;;;;6.13;2.25;;;;;;;13.30;100.00;101195.34;6247217;28;20061;-78
2021/08/09 04:12:50;;;;;;;5.78;2.00;;;;;;;13.35;100.00;101191.53;6251087;28;20417;-78
2021/08/09 04:15:53;;;;;;;10.48;2.55;;;;;;;13.39;100.00;101195.66;6234568;28;20056;-78
2021/08/09 04:18:54;;;;;;;7.00;1.90;;;;;;;13.42;100.00;101198.13;6241683;28;20064;-78
2021/08/09 04:21:56;;;;;;;8.38;2.20;;;;;;;13.53;100.00;101194.00;6257232;28;20057;-77
2021/08/09 04:24:57;;;;;;;8.57;2.15;;;;;;;13.49;100.00;101201.28;6262449;28;20041;-77
2021/08/09 04:27:58;;;;;;;3.88;2.20;;;;;;;13.52;100.00;101189.69;6245938;28;20057;-77
2021/08/09 04:31:01;;;;;;;3.63;1.80;;;;;;;13.55;100.00;101195.63;6245543;28;20057;-77
2021/08/09 04:34:02;;;;;;;4.45;2.00;;;;;;;13.62;100.00;101196.09;6242889;28;20049;-77
2021/08/09 04:37:04;;;;;;;5.68;2.10;;;;;;;13.70;100.00;101193.88;6248770;28;20045;-77
2021/08/09 04:40:07;;;;;;;5.80;1.88;;;;;;;13.71;100.00;101201.69;6264029;28;20056;-77
2021/08/09 04:43:09;;;;;;;5.53;1.90;;;;;;;13.74;100.00;101200.69;6280459;28;20049;-78
2021/08/09 04:46:11;;;;;;;6.32;2.10;;;;;;;13.81;100.00;101198.53;6280458;28;20048;-78
2021/08/09 04:49:13;;;;;;;4.72;1.90;;;;;;;13.82;100.00;101200.22;6280234;28;20070;-79
2021/08/09 04:52:15;;;;;;;5.80;2.30;;;;;;;13.83;100.00;101201.94;6280446;28;20056;-79
2021/08/09 04:55:16;;;;;;;5.05;1.95;;;;;;;13.85;100.00;101195.63;6281528;28;20045;-78
2021/08/09 04:58:18;;;;;;;7.57;2.30;;;;;;;13.90;100.00;101212.03;6281703;28;20056;-78
2021/08/09 05:01:21;;;;;;;6.80;1.92;;;;;;;13.92;100.00;101204.88;6282055;28;20056;-78
2021/08/09 05:04:22;;;;;;;5.35;1.83;;;;;;;13.99;100.00;101204.47;6281735;28;20044;-77
2021/08/09 05:07:23;;;;;;;9.05;2.08;;;;;;;14.00;100.00;101204.41;6281320;28;20503;-79
2021/08/09 05:10:25;;;;;;;4.43;1.80;;;;;;;14.03;100.00;101216.56;6272323;28;20044;-79
2021/08/09 05:13:27;;;;;;;10.27;2.10;;;;;;;14.08;100.00;101209.22;6275071;28;20048;-78
2021/08/09 05:16:33;;;;;;;4.65;1.83;;;;;;;14.09;100.00;101213.59;6282964;28;20059;-78
2021/08/09 05:19:34;;;;;;;4.72;2.17;;;;;;;14.10;100.00;101215.28;6281144;28;20072;-79
2021/08/09 05:22:36;;;;;;;5.97;1.75;;;;;;;14.20;100.00;101216.41;6283065;28;20136;-79
2021/08/09 05:25:38;;;;;;;4.93;1.90;;;;;;;14.20;100.00;101211.97;6279151;28;20042;-79
2021/08/09 05:28:40;;;;;;;4.90;1.80;;;;;;;14.23;100.00;101218.03;6252354;28;20676;-79
2021/08/09 05:31:43;;;;;;;6.63;1.80;;;;;;;14.24;100.00;101211.78;6278218;28;20081;-78
2021/08/09 05:34:46;;;;;;;4.32;1.85;;;;;;;14.29;100.00;101212.34;6261330;28;20049;-78
2021/08/09 05:37:47;;;;;;;6.43;2.20;;;;;;;14.36;100.00;101216.34;6258961;28;20052;-78
2021/08/09 05:40:49;;;;;;;8.85;2.75;;;;;;;14.34;100.00;101219.06;6260046;28;20059;-79
2021/08/09 05:43:50;;;;;;;5.93;2.15;;;;;;;14.40;100.00;101220.50;6260079;28;20041;-79
2021/08/09 05:46:53;;;;;;;9.65;2.90;;;;;;;14.43;100.00;101228.22;6272505;28;20053;-78
2021/08/09 05:49:56;;;;;;;5.47;2.03;;;;;;;14.47;100.00;101222.66;6284685;28;20053;-79
2021/08/09 05:52:57;;;;;;;6.82;1.88;;;;;;;14.51;100.00;101223.34;6285136;28;20110;-79
2021/08/09 05:55:58;;;;;;;4.85;2.05;;;;;;;14.60;100.00;101229.84;6283387;28;20056;-79
2021/08/09 05:59:00;;;;;;;5.13;2.65;;;;;;;14.60;100.00;101229.84;6281816;28;20060;-77
2021/08/09 06:02:02;;;;;;;7.57;2.10;;;;;;;14.65;100.00;101238.34;6277341;28;20049;-77
2021/08/09 06:05:04;;;;;;;7.38;2.20;;;;;;;14.67;100.00;101237.31;6277246;28;20056;-77
2021/08/09 06:08:06;;;;;;;9.00;2.42;;;;;;;14.74;100.00;101236.94;6277186;28;20049;-75
2021/08/09 06:11:07;;;;;;;7.70;2.20;;;;;;;14.81;100.00;101240.91;6276583;28;20048;-77
2021/08/09 06:14:09;;;;;;;5.00;2.05;;;;;;;14.83;100.00;101239.84;6276193;28;20048;-77
2021/08/09 06:17:11;;;;;;;6.93;1.67;;;;;;;14.86;100.00;101233.50;6276565;28;20049;-78
2021/08/09 06:20:13;;;;;;;7.40;2.28;;;;;;;14.94;100.00;101236.50;6277571;28;20049;-78
2021/08/09 06:23:15;;;;;;;6.07;2.60;;;;;;;15.00;100.00;101230.00;6276457;28;20492;-78
2021/08/09 06:26:16;;;;;;;4.55;1.83;;;;;;;15.03;100.00;101243.00;6278540;28;20052;-78
2021/08/09 06:29:17;;;;;;;8.57;2.50;;;;;;;15.05;99.96;101239.31;6278424;28;20057;-78
2021/08/09 06:32:20;;;;;;;9.15;2.00;;;;;;;15.13;99.56;101238.84;6278898;28;20044;-78
2021/08/09 06:35:21;;;;;;;10.68;2.45;;;;;;;15.19;98.58;101249.88;6276418;28;20426;-78
2021/08/09 06:38:23;;;;;;;7.35;2.35;;;;;;;15.26;98.98;101249.47;6278312;28;20435;-78
2021/08/09 06:41:25;;;;;;;5.10;2.10;;;;;;;15.34;98.21;101249.81;6278674;28;20049;-77
2021/08/09 06:44:27;;;;;;;11.30;2.45;;;;;;;15.37;97.11;101258.41;6275816;28;20135;-76
2021/08/09 06:47:29;;;;;;;6.15;2.08;;;;;;;15.42;97.88;101260.78;6276259;28;20091;-78
2021/08/09 06:50:31;;;;;;;4.97;1.90;;;;;;;15.46;98.10;101257.81;6276704;28;20057;-77
2021/08/09 06:53:32;;;;;;;11.75;2.53;;;;;;;15.47;98.40;101267.47;6274832;28;20060;-77
2021/08/09 06:56:33;;;;;;;5.68;2.55;;;;;;;15.45;97.45;101266.72;6275954;28;20045;-77
2021/08/09 06:59:35;;;;;;;6.88;2.38;;;;;;;15.46;97.65;101275.50;6237528;28;20070;-78
2021/08/09 07:02:37;;;;;;;5.53;2.40;;;;;;;15.52;97.78;101269.81;6237143;28;20046;-77
2021/08/09 07:05:40;;;;;;;4.70;2.08;;;;;;;15.48;97.55;101277.09;6227462;28;20531;-78
2021/08/09 07:08:42;;;;;;;8.07;1.90;;;;;;;15.61;97.26;101273.66;6226842;28;20061;-78
2021/08/09 07:11:43;;;;;;;5.95;2.28;;;;;;;15.46;96.17;101272.88;6228058;28;20084;-79
2021/08/09 07:14:44;;;;;;;5.35;1.90;;;;;;;15.42;97.36;101277.50;6228874;28;20105;-78
2021/08/09 07:17:47;;;;;;;8.50;2.05;;;;;;;15.47;97.01;101280.69;6228691;28;20061;-78
2021/08/09 07:20:48;;;;;;;5.90;2.00;;;;;;;15.52;96.29;101283.06;6226203;28;20096;-78
2021/08/09 07:23:50;;;;;;;7.47;2.30;;;;;;;15.67;94.73;101283.91;6235623;28;20053;-78
2021/08/09 07:26:51;;;;;;;9.65;2.85;;;;;;;15.73;92.67;101272.88;6234301;28;20559;-77
2021/08/09 07:29:53;;;;;;;8.20;2.08;;;;;;;15.86;91.75;101279.06;6230167;28;20061;-77
2021/08/09 07:32:55;;;;;;;7.60;2.10;;;;;;;15.95;90.93;101275.78;6226032;28;20050;-77
2021/08/09 07:35:56;;;;;;;6.50;2.30;;;;;;;16.06;89.39;101276.88;6224593;28;20489;-75
2021/08/09 07:38:58;;;;;;;6.88;2.50;;;;;;;16.15;86.59;101285.03;6260510;28;20048;-73
2021/08/09 07:41:59;;;;;;;12.10;2.20;;;;;;;16.12;85.77;101279.09;6272109;28;20404;-77
2021/08/09 07:45:00;;;;;;;8.15;1.95;;;;;;;16.11;85.80;101280.91;6270571;28;20056;-77
2021/08/09 07:48:04;;;;;;;7.70;2.08;;;;;;;16.19;87.28;101275.91;6270648;28;20423;-77
2021/08/09 07:51:05;;;;;;;8.65;2.17;;;;;;;16.37;86.20;101280.94;6271559;28;20049;-77
2021/08/09 07:54:06;;;;;;;9.93;2.13;;;;;;;16.38;84.61;101279.97;6270929;28;20052;-77
2021/08/09 07:57:08;;;;;;;13.48;2.55;;;;;;;16.44;85.05;101275.09;6248462;28;20085;-76
2021/08/09 08:00:10;;;;;;;7.18;2.78;;;;;;;16.53;83.38;101268.28;6240454;28;20053;-74
2021/08/09 08:03:13;;;;;;;8.48;1.95;;;;;;;16.66;82.72;101273.56;6252467;28;20053;-77
2021/08/09 08:06:14;;;;;;;6.20;1.80;;;;;;;16.74;83.83;101273.91;6255115;28;20449;-77
2021/08/09 08:09:15;;;;;;;5.25;1.60;;;;;;;16.83;81.04;101275.91;6252490;28;20049;-75
2021/08/09 08:12:17;;;;;;;10.38;1.83;;;;;;;16.83;81.78;101265.31;6253980;28;20045;-75
2021/08/09 08:15:19;;;;;;;7.45;1.67;;;;;;;16.97;80.15;101270.47;6255346;28;20135;-76
2021/08/09 08:18:21;;;;;;;3.83;1.65;;;;;;;17.15;77.68;101273.59;6258198;28;20049;-77
2021/08/09 08:21:23;;;;;;;4.32;1.65;;;;;;;17.21;79.33;101277.63;6277644;22;20023;-79
2021/08/09 08:24:24;;;;;;;5.68;1.52;;;;;;;17.37;79.22;101280.88;6251404;28;20056;-81
2021/08/09 08:27:25;;;;;;;3.22;1.85;;;;;;;17.33;76.85;101287.34;6236145;28;20496;-78
2021/08/09 08:30:27;;;;;;;6.90;1.27;;;;;;;17.33;78.13;101289.16;6231994;28;20049;-79
2021/08/09 08:33:29;;;;;;;6.05;1.90;;;;;;;17.36;78.77;101295.13;6256698;28;20048;-78
2021/08/09 08:36:31;;;;;;;7.78;2.00;;;;;;;17.37;77.32;101299.47;6253919;28;20049;-78
2021/08/09 08:39:33;;;;;;;5.80;1.67;;;;;;;17.37;77.55;101302.13;6251433;28;20049;-78
2021/08/09 08:42:34;;;;;;;4.88;1.55;;;;;;;17.39;77.15;101304.66;6250867;28;20135;-78
2021/08/09 08:45:36;;;;;;;13.75;2.00;;;;;;;17.44;76.69;101300.72;6250674;28;20050;-78
2021/08/09 08:48:39;;;;;;;9.68;2.10;;;;;;;17.49;77.43;101303.88;6250933;28;20507;-79
2021/08/09 08:51:41;;;;;;;7.05;1.92;;;;;;;17.39;79.55;101308.16;6250637;28;20057;-79
2021/08/09 08:54:43;;;;;;;8.10;1.85;;;;;;;17.39;76.29;101316.13;6250662;28;20519;-77
2021/08/09 08:57:46;;;;;;;8.20;2.22;;;;;;;17.37;77.13;101311.91;6250932;28;20049;-79
2021/08/09 09:00:49;;;;;;;11.10;2.00;;;;;;;17.37;79.15;101318.06;6249968;28;20514;-78
2021/08/09 09:03:52;;;;;;;6.43;1.98;;;;;;;17.50;79.88;101316.22;6234423;28;20053;-80
2021/08/09 09:06:56;;;;;;;5.95;1.80;;;;;;;17.49;81.79;101329.63;6231005;28;20417;-79
2021/08/09 09:10:14;;;;;;;11.05;1.85;;;;;;;17.58;78.98;101333.41;6241832;28;20050;-81
2021/08/09 09:13:18;;;;;;;8.60;1.77;;;;;;;17.44;78.97;101329.94;6250405;28;20050;-79
2021/08/09 09:16:19;;;;;;;5.75;2.05;;;;;;;17.30;82.01;101326.56;6250257;28;20512;-77
2021/08/09 09:19:47;;;;;;;10.70;2.55;;;;;;;17.33;84.60;101331.69;6250062;28;20053;-77
2021/08/09 09:22:48;;;;;;;6.97;1.98;;;;;;;17.19;78.48;101328.22;6234992;28;20523;-77
2021/08/09 09:25:51;;;;;;;5.03;1.42;;;;;;;17.19;80.07;101337.97;6250200;28;20049;-78
2021/08/09 09:28:54;;;;;;;9.30;1.90;;;;;;;17.26;81.50;101339.25;6250283;28;20053;-80
2021/08/09 09:31:55;;;;;;;10.52;1.80;;;;;;;17.27;81.12;101343.59;6250064;28;20049;-80
2021/08/09 09:34:59;;;;;;;8.07;1.83;;;;;;;17.28;79.91;101339.97;6249970;28;20049;-78
2021/08/09 09:38:01;;;;;;;7.22;1.92;;;;;;;17.31;81.27;101349.56;6250508;28;20511;-79
2021/08/09 09:41:07;;;;;;;6.68;2.00;;;;;;;17.31;79.38;101355.72;6249724;28;20054;-79
2021/08/09 09:44:08;;;;;;;8.80;2.40;;;;;;;17.21;83.77;101344.91;6249601;28;20050;-78
2021/08/09 09:47:24;;;;;;;5.88;1.60;;;;;;;17.12;84.61;101352.66;6249884;28;20052;-77
2021/08/09 09:50:27;;;;;;;10.15;1.90;;;;;;;17.00;83.48;101351.72;6249579;28;20398;-77
2021/08/09 09:53:29;;;;;;;9.13;2.30;;;;;;;16.93;84.92;101359.25;6249921;28;20053;-78
2021/08/09 09:56:31;;;;;;;5.47;1.60;;;;;;;16.86;87.00;101360.66;6245830;28;20042;-77
2021/08/09 09:59:32;;;;;;;7.05;1.85;;;;;;;16.82;86.52;101363.63;6247979;28;20053;-77
2021/08/09 10:02:34;;;;;;;7.57;1.48;;;;;;;16.82;87.51;101359.19;6227445;28;20062;-79
2021/08/09 10:05:39;;;;;;;7.43;1.75;;;;;;;16.87;89.97;101362.34;6240375;28;20041;-79
2021/08/09 10:08:44;;;;;;;11.32;1.90;;;;;;;16.93;88.80;101369.03;6235700;28;20076;-77
2021/08/09 10:11:46;;;;;;;9.82;2.55;;;;;;;16.98;88.65;101372.22;6224797;28;20053;-77
2021/08/09 10:14:48;;;;;;;7.90;1.88;;;;;;;16.98;89.87;101372.22;6240716;28;20053;-80
2021/08/09 10:17:53;;;;;;;7.82;2.60;;;;;;;17.10;91.75;101378.47;6247254;28;20516;-78
2021/08/09 10:20:57;;;;;;;5.15;1.63;;;;;;;17.13;89.92;101376.47;6238755;28;20049;-78
2021/08/09 10:24:00;;;;;;;7.25;2.05;;;;;;;17.16;88.65;101370.91;6255589;28;20041;-78
2021/08/09 10:27:01;;;;;;;8.65;2.05;;;;;;;17.11;90.21;101381.00;6258430;28;20041;-78
2021/08/09 10:30:14;;;;;;;7.35;1.77;;;;;;;17.15;91.16;101376.34;6247011;28;20045;-80
2021/08/09 10:33:51;;;;;;;13.40;2.13;;;;;;;17.13;92.58;101386.25;6264368;28;20415;-80
2021/08/09 10:37:08;;;;;;;6.93;2.20;;;;;;;17.15;92.75;101387.81;6273180;28;20049;-79
2021/08/09 10:40:18;;;;;;;5.28;1.75;;;;;;;17.20;91.99;101388.34;6266804;28;20056;-79
2021/08/09 10:43:19;;;;;;;6.85;1.73;;;;;;;17.25;90.14;101386.19;6266031;28;20049;-80
2021/08/09 10:46:35;;;;;;;5.65;1.67;;;;;;;17.29;87.80;101384.19;6275791;28;20056;-80
2021/08/09 10:49:58;;;;;;;12.60;2.05;;;;;;;17.27;85.02;101383.44;6275302;28;20048;-78
2021/08/09 10:53:01;;;;;;;11.18;2.40;;;;;;;17.20;87.05;101388.34;6274904;28;20057;-80
2021/08/09 10:56:03;;;;;;;11.27;2.17;;;;;;;17.26;90.01;101384.41;6273432;28;20511;-80
2021/08/09 10:59:04;;;;;;;3.95;1.30;;;;;;;17.38;89.60;101388.84;6275213;28;20416;-78
2021/08/09 11:02:14;;;;;;;9.57;2.10;;;;;;;17.51;86.12;101383.50;6250444;28;20459;-77
2021/08/09 11:05:30;;;;;;;6.22;1.80;;;;;;;17.54;86.97;101375.31;6258005;28;20051;-78
2021/08/09 11:08:33;;;;;;;8.48;2.30;;;;;;;17.66;87.51;101379.72;6241933;28;20045;-77
2021/08/09 11:12:08;;;;;;;7.70;1.73;;;;;;;17.74;87.74;101377.38;6245845;28;20056;-77
2021/08/09 11:15:18;;;;;;;8.48;2.17;;;;;;;17.82;84.83;101368.84;6247020;28;20045;-77
2021/08/09 11:18:20;;;;;;;8.00;2.10;;;;;;;17.94;83.06;101369.72;6246327;28;20072;-76
2021/08/09 11:21:22;;;;;;;10.15;1.98;;;;;;;17.92;84.87;101380.50;6246747;28;20057;-77
2021/08/09 11:24:37;;;;;;;8.55;2.75;;;;;;;17.95;83.00;101372.28;6248902;28;20071;-77
2021/08/09 11:27:56;;;;;;;7.25;1.90;;;;;;;18.04;83.00;101370.75;6259944;28;20051;-76
2021/08/09 11:30:59;;;;;;;11.00;2.00;;;;;;;18.13;86.16;101375.41;6263108;28;20060;-76
2021/08/09 11:34:06;;;;;;;8.13;2.10;;;;;;;18.25;85.67;101369.13;6271011;28;20130;-76
2021/08/09 11:37:07;;;;;;;9.77;2.53;;;;;;;18.36;83.43;101373.66;6271552;28;20468;-76
2021/08/09 11:40:11;;;;;;;9.63;2.00;;;;;;;18.51;84.99;101371.63;6271417;28;20061;-77
2021/08/09 11:43:15;;;;;;;7.90;1.83;;;;;;;18.75;83.63;101374.22;6271365;28;20057;-78
2021/08/09 11:46:19;;;;;;;6.38;1.67;;;;;;;18.78;80.01;101367.84;6271280;28;20513;-77
2021/08/09 11:49:21;;;;;;;11.88;2.13;;;;;;;18.72;80.35;101369.16;6257818;28;20517;-76
2021/08/09 11:52:22;;;;;;;11.27;2.05;;;;;;;18.68;82.29;101367.66;6271252;28;20053;-77
2021/08/09 11:55:25;;;;;;;6.68;2.22;;;;;;;18.79;78.80;101367.69;6271151;28;20060;-77
2021/08/09 11:58:30;;;;;;;6.82;1.50;;;;;;;19.18;75.97;101353.06;6271143;28;20056;-77
2021/08/09 12:01:36;;;;;;;5.93;1.73;;;;;;;19.37;73.23;101354.25;6270825;28;20136;-78
2021/08/09 12:04:44;;;;;;;6.65;1.88;;;;;;;19.42;75.29;101344.91;6259391;28;20172;-77
2021/08/09 12:07:46;;;;;;;6.37;1.43;;;;;;;19.79;76.91;101352.59;6246307;28;20054;-77
2021/08/09 12:10:49;;;;;;;7.90;2.22;;;;;;;20.67;74.94;101354.13;6246655;28;20049;-75
2021/08/09 12:14:05;;;;;;;4.90;1.60;;;;;;;21.18;72.47;101339.84;6245995;28;20045;-75
2021/08/09 12:17:14;;;;;;;3.45;1.55;;;;;;;21.12;65.11;101343.03;6246319;28;20045;-76
2021/08/09 12:20:16;;;;;;;4.47;1.65;;;;;;;20.71;68.63;101339.50;6246107;28;20140;-76
2021/08/09 12:23:24;;;;;;;8.40;2.03;;;;;;;20.65;71.69;101342.69;6245947;28;20417;-76
2021/08/09 12:26:30;;;;;;;7.28;1.75;;;;;;;20.88;68.47;101335.34;6246570;28;20046;-77
2021/08/09 12:29:31;;;;;;;6.38;1.70;;;;;;;21.09;65.95;101330.81;6246599;28;20500;-76
2021/08/09 12:32:33;;;;;;;4.45;1.60;;;;;;;21.19;68.79;101325.47;6246244;28;20056;-77
2021/08/09 12:35:36;;;;;;;4.57;1.27;;;;;;;21.77;70.08;101326.47;6245880;28;20046;-77
2021/08/09 12:38:40;;;;;;;5.95;1.90;;;;;;;22.27;62.55;101320.13;6246863;28;20057;-76
2021/08/09 12:41:43;;;;;;;7.72;1.95;;;;;;;22.35;61.74;101314.06;6246006;28;20104;-76
2021/08/09 12:44:46;;;;;;;4.25;1.45;;;;;;;21.87;64.42;101317.59;6248741;28;20049;-76
2021/08/09 12:47:47;;;;;;;4.25;1.20;;;;;;;21.24;65.77;101312.56;6251727;28;20464;-79
2021/08/09 12:50:49;;;;;;;7.32;1.45;;;;;;;20.84;68.96;101308.06;6252010;28;20057;-76
2021/08/09 12:53:50;;;;;;;5.40;1.25;;;;;;;20.44;66.88;101318.69;6250599;28;20045;-77
2021/08/09 12:56:53;;;;;;;4.85;1.40;;;;;;;20.23;66.11;101311.50;6250341;28;20042;-75
2021/08/09 12:59:56;;;;;;;8.02;1.63;;;;;;;20.13;65.33;101315.94;6250600;28;20054;-76
2021/08/09 13:02:57;;;;;;;5.43;1.33;;;;;;;19.97;67.65;101310.19;6256193;28;20049;-76
2021/08/09 13:06:01;;;;;;;7.65;1.63;;;;;;;19.87;68.79;101315.47;6255739;28;20052;-77
2021/08/09 13:09:02;;;;;;;5.57;1.45;;;;;;;19.84;66.38;101304.19;6257559;28;20052;-78
2021/08/09 13:12:06;;;;;;;4.88;1.27;;;;;;;19.76;66.26;101310.19;6249717;28;20052;-77
2021/08/09 13:15:08;;;;;;;4.18;1.38;;;;;;;19.82;69.83;101307.00;6250820;28;20053;-78
2021/08/09 13:18:11;;;;;;;5.55;1.67;;;;;;;19.81;68.76;101307.97;6266363;28;20128;-77
2021/08/09 13:21:12;;;;;;;4.90;1.20;;;;;;;19.83;67.74;101305.16;6268493;28;20492;-78
2021/08/09 13:24:13;;;;;;;5.60;1.38;;;;;;;19.82;66.97;101309.66;6233356;28;20464;-77
2021/08/09 13:27:16;;;;;;;7.00;1.33;;;;;;;19.91;66.19;101308.06;6244007;28;20046;-75
2021/08/09 13:30:17;;;;;;;3.33;1.20;;;;;;;19.93;66.48;101303.41;6240496;28;20496;-75
2021/08/09 13:33:19;;;;;;;4.97;1.60;;;;;;;19.93;66.66;101306.09;6225302;28;20046;-78
2021/08/09 13:36:21;;;;;;;2.20;1.20;;;;;;;19.93;65.43;101298.09;6225145;28;20493;-75
2021/08/09 13:39:22;;;;;;;3.35;1.50;;;;;;;19.91;65.75;101290.22;6238756;28;20076;-76
2021/08/09 13:42:25;;;;;;;4.15;1.48;;;;;;;20.05;67.01;101285.53;6258027;28;20052;-76
2021/08/09 13:45:29;;;;;;;4.65;1.70;;;;;;;19.96;66.40;101292.50;6248815;28;20049;-76
2021/08/09 13:48:31;;;;;;;3.20;1.30;;;;;;;19.86;67.43;101288.91;6249499;28;20498;-76
2021/08/09 13:51:32;;;;;;;5.40;1.45;;;;;;;19.87;67.84;101286.13;6248825;28;20086;-76
2021/08/09 13:54:33;;;;;;;2.45;1.27;;;;;;;20.02;70.81;101287.47;6248130;28;20080;-75
2021/08/09 13:57:36;;;;;;;6.45;1.30;;;;;;;19.96;68.24;101281.81;6226486;28;20520;-76
2021/08/09 14:00:37;;;;;;;3.05;1.30;;;;;;;20.04;67.28;101278.53;6224436;28;20053;-77
2021/08/09 14:03:39;;;;;;;10.77;1.40;;;;;;;20.31;67.45;101283.31;6227656;28;20057;-75
2021/08/09 14:06:41;;;;;;;6.15;1.50;;;;;;;20.84;66.75;101275.16;6248715;28;20077;-75
2021/08/09 14:09:42;;;;;;;3.30;1.30;;;;;;;20.96;65.86;101276.75;6248520;28;20501;-77